createdAt,value
2018-01-14T00:00:12.400Z,102248.66
2018-01-14T00:02:39.102Z,102252.27
2018-01-14T00:05:05.852Z,102249.33
2018-01-14T00:07:32.604Z,102240.23
2018-01-14T00:09:59.243Z,102242.88
2018-01-14T00:12:25.853Z,102237.05
2018-01-14T00:14:52.536Z,102242.18
2018-01-14T00:17:19.317Z,102232.30
2018-01-14T00:19:46.836Z,102229.12
2018-01-14T00:22:13.501Z,102224.25
2018-01-14T00:24:40.351Z,102217.39
2018-01-14T00:27:07.084Z,102223.41
2018-01-14T00:29:33.729Z,102215.66
2018-01-14T00:32:00.363Z,102218.11
2018-01-14T00:34:27.111Z,102214.34
2018-01-14T00:36:53.875Z,102212.81
2018-01-14T00:39:20.626Z,102218.33
2018-01-14T00:41:47.348Z,102210.25
2018-01-14T00:44:14.200Z,102209.98
2018-01-14T00:46:41.144Z,102209.32
2018-01-14T00:49:07.804Z,102213.56
2018-01-14T00:51:34.606Z,102210.23
2018-01-14T00:54:01.483Z,102213.58
2018-01-14T00:56:28.310Z,102208.43
2018-01-14T00:58:54.910Z,102212.64
2018-01-14T01:01:21.621Z,102202.58
2018-01-14T01:03:48.296Z,102208.94
2018-01-14T01:06:15.111Z,102208.29
2018-01-14T01:08:41.723Z,102208.80
2018-01-14T01:11:08.574Z,102208.13
2018-01-14T01:13:35.272Z,102204.42
2018-01-14T01:16:08.939Z,102200.11
2018-01-14T01:18:35.808Z,102195.44
2018-01-14T01:21:02.544Z,102198.70
2018-01-14T01:23:29.296Z,102198.84
2018-01-14T01:25:56.135Z,102192.30
2018-01-14T01:28:22.724Z,102195.07
2018-01-14T01:30:50.239Z,102200.06
2018-01-14T01:33:16.895Z,102194.40
2018-01-14T01:35:43.654Z,102193.64
2018-01-14T01:38:10.342Z,102196.91
2018-01-14T01:40:37.015Z,102188.11
2018-01-14T01:43:03.763Z,102192.27
2018-01-14T01:45:30.477Z,102194.55
2018-01-14T01:47:57.360Z,102190.17
2018-01-14T01:50:24.104Z,102194.81
2018-01-14T01:52:50.846Z,102200.30
2018-01-14T01:55:17.602Z,102187.06
2018-01-14T01:57:44.251Z,102186.80
2018-01-14T02:00:11.088Z,102181.64
2018-01-14T02:02:37.931Z,102182.27
2018-01-14T02:05:04.596Z,102181.43
2018-01-14T02:07:31.274Z,102188.59
2018-01-14T02:09:58.784Z,102194.91
2018-01-14T02:12:25.467Z,102189.64
2018-01-14T02:14:52.224Z,102181.45
2018-01-14T02:17:19.672Z,102185.49
2018-01-14T02:19:46.383Z,102182.48
2018-01-14T02:22:13.027Z,102183.95
2018-01-14T02:24:39.937Z,102178.28
2018-01-14T02:27:06.682Z,102178.80
2018-01-14T02:29:33.464Z,102170.39
2018-01-14T02:32:00.215Z,102171.88
2018-01-14T02:34:26.969Z,102169.34
2018-01-14T02:36:53.759Z,102171.99
2018-01-14T02:39:21.269Z,102173.48
2018-01-14T02:41:48.008Z,102166.46
2018-01-14T02:44:14.756Z,102161.36
2018-01-14T02:46:41.536Z,102171.61
2018-01-14T02:49:08.248Z,102169.45
2018-01-14T02:51:35.095Z,102166.84
2018-01-14T02:54:01.847Z,102164.70
2018-01-14T02:56:28.584Z,102166.57
2018-01-14T02:58:55.239Z,102177.20
2018-01-14T03:01:21.974Z,102164.91
2018-01-14T03:03:48.726Z,102173.77
2018-01-14T03:06:15.565Z,102168.17
2018-01-14T03:08:42.213Z,102170.50
2018-01-14T03:11:08.959Z,102169.22
2018-01-14T03:13:35.705Z,102169.73
2018-01-14T03:16:02.300Z,102164.09
2018-01-14T03:18:29.715Z,102161.09
2018-01-14T03:20:56.459Z,102159.44
2018-01-14T03:23:23.196Z,102157.62
2018-01-14T03:25:49.958Z,102152.41
2018-01-14T03:28:16.687Z,102154.69
2018-01-14T03:30:43.345Z,102156.52
2018-01-14T03:33:09.938Z,102154.81
2018-01-14T03:35:36.630Z,102151.38
2018-01-14T03:38:03.363Z,102146.57
2018-01-14T03:40:30.061Z,102148.44
2018-01-14T03:42:57.596Z,102152.86
2018-01-14T03:45:24.388Z,102150.66
2018-01-14T03:47:51.263Z,102150.77
2018-01-14T03:50:18.009Z,102150.88
2018-01-14T03:52:44.760Z,102153.09
2018-01-14T03:55:11.508Z,102151.04
2018-01-14T03:57:38.160Z,102150.98
2018-01-14T04:00:04.851Z,102150.98
2018-01-14T04:02:32.460Z,102154.16
2018-01-14T04:04:59.144Z,102153.80
2018-01-14T04:07:25.943Z,102153.03
2018-01-14T04:09:52.630Z,102149.11
2018-01-14T04:12:19.304Z,102146.02
2018-01-14T04:14:46.092Z,102150.00
2018-01-14T04:17:12.831Z,102146.07
2018-01-14T04:19:39.678Z,102143.03
2018-01-14T04:22:06.318Z,102145.84
2018-01-14T04:24:33.094Z,102145.39
2018-01-14T04:26:59.813Z,102143.25
2018-01-14T04:29:26.531Z,102136.22
2018-01-14T04:31:53.313Z,102145.52
2018-01-14T04:34:19.956Z,102141.23
2018-01-14T04:36:46.803Z,102142.92
2018-01-14T04:39:13.542Z,102143.46
2018-01-14T04:41:40.218Z,102141.80
2018-01-14T04:44:06.932Z,102137.39
2018-01-14T04:46:33.687Z,102139.69
2018-01-14T04:49:00.452Z,102136.70
2018-01-14T04:51:27.168Z,102134.94
2018-01-14T04:53:53.968Z,102135.44
2018-01-14T04:56:21.483Z,102133.72
2018-01-14T04:58:48.229Z,102136.48
2018-01-14T05:01:14.883Z,102141.36
2018-01-14T05:03:41.712Z,102141.91
2018-01-14T05:06:08.435Z,102137.64
2018-01-14T05:08:35.203Z,102135.42
2018-01-14T05:11:01.955Z,102134.61
2018-01-14T05:13:28.770Z,102139.58
2018-01-14T05:15:55.548Z,102136.14
2018-01-14T05:18:22.268Z,102133.98
2018-01-14T05:20:49.040Z,102138.03
2018-01-14T05:23:15.784Z,102141.17
2018-01-14T05:25:42.524Z,102131.05
2018-01-14T05:28:09.175Z,102138.19
2018-01-14T05:30:35.928Z,102134.27
2018-01-14T05:33:02.840Z,102138.73
2018-01-14T05:35:29.607Z,102137.41
2018-01-14T05:37:56.261Z,102142.38
2018-01-14T05:40:22.920Z,102138.89
2018-01-14T05:42:49.744Z,102146.47
2018-01-14T05:45:17.212Z,102142.37
2018-01-14T05:47:43.954Z,102143.61
2018-01-14T05:50:10.906Z,102142.40
2018-01-14T05:52:37.656Z,102142.91
2018-01-14T05:55:04.400Z,102140.92
2018-01-14T05:57:31.071Z,102140.58
2018-01-14T05:59:57.783Z,102139.84
2018-01-14T06:02:24.556Z,102144.09
2018-01-14T06:04:51.275Z,102150.90
2018-01-14T06:07:17.941Z,102152.88
2018-01-14T06:09:44.664Z,102147.88
2018-01-14T06:12:11.332Z,102153.91
2018-01-14T06:14:38.160Z,102145.30
2018-01-14T06:17:04.807Z,102145.61
2018-01-14T06:19:31.452Z,102147.80
2018-01-14T06:21:58.298Z,102151.33
2018-01-14T06:24:24.935Z,102151.52
2018-01-14T06:26:51.683Z,102148.91
2018-01-14T06:29:18.333Z,102152.39
2018-01-14T06:31:44.948Z,102150.13
2018-01-14T06:34:11.719Z,102135.56
2018-01-14T06:36:39.176Z,102137.44
2018-01-14T06:39:05.834Z,102142.33
2018-01-14T06:41:32.468Z,102134.34
2018-01-14T06:43:59.207Z,102136.30
2018-01-14T06:46:25.845Z,102137.14
2018-01-14T06:48:52.532Z,102143.14
2018-01-14T06:51:19.244Z,102146.75
2018-01-14T06:53:45.929Z,102146.83
2018-01-14T06:56:13.357Z,102139.36
2018-01-14T06:58:40.190Z,102143.88
2018-01-14T07:01:06.944Z,102146.59
2018-01-14T07:03:33.625Z,102141.08
2018-01-14T07:06:00.475Z,102144.00
2018-01-14T07:08:28.064Z,102139.73
2018-01-14T07:10:54.816Z,102137.88
2018-01-14T07:13:21.593Z,102145.95
2018-01-14T07:15:48.335Z,102155.03
2018-01-14T07:18:14.987Z,102156.34
2018-01-14T07:20:41.692Z,102155.98
2018-01-14T07:23:08.472Z,102157.01
2018-01-14T07:25:35.215Z,102159.30
2018-01-14T07:28:01.796Z,102152.50
2018-01-14T07:30:28.404Z,102162.63
2018-01-14T07:32:55.015Z,102157.44
2018-01-14T07:35:21.634Z,102151.70
2018-01-14T07:37:48.999Z,102151.23
2018-01-14T07:40:16.355Z,102148.26
2018-01-14T07:42:43.848Z,102147.50
2018-01-14T07:45:10.729Z,102145.45
2018-01-14T07:47:37.433Z,102139.06
2018-01-14T07:50:04.120Z,102135.73
2018-01-14T07:52:30.713Z,102138.02
2018-01-14T07:54:57.353Z,102137.12
2018-01-14T07:57:24.001Z,102143.69
2018-01-14T07:59:50.670Z,102143.31
2018-01-14T08:02:17.287Z,102150.25
2018-01-14T08:04:44.075Z,102152.50
2018-01-14T08:07:10.828Z,102157.21
2018-01-14T08:09:37.464Z,102155.91
2018-01-14T08:12:04.303Z,102148.85
2018-01-14T08:14:30.955Z,102149.58
2018-01-14T08:16:57.704Z,102148.85
2018-01-14T08:19:24.304Z,102140.44
2018-01-14T08:21:50.941Z,102136.88
2018-01-14T08:24:18.279Z,102135.77
2018-01-14T08:26:44.864Z,102141.03
2018-01-14T08:29:11.652Z,102146.98
2018-01-14T08:31:38.237Z,102153.34
2018-01-14T08:34:04.855Z,102152.22
2018-01-14T08:36:32.283Z,102153.88
2018-01-14T08:38:58.892Z,102161.45
2018-01-14T08:41:25.475Z,102155.49
2018-01-14T08:43:52.153Z,102159.31
2018-01-14T08:46:19.517Z,102161.91
2018-01-14T08:48:46.862Z,102158.41
2018-01-14T08:51:13.496Z,102163.11
2018-01-14T08:53:40.120Z,102157.73
2018-01-14T08:56:06.748Z,102159.19
2018-01-14T08:58:33.392Z,102152.85
2018-01-14T09:01:00.050Z,102157.48
2018-01-14T09:03:26.895Z,102162.13
2018-01-14T09:05:53.541Z,102155.66
2018-01-14T09:08:20.890Z,102155.43
2018-01-14T09:10:47.468Z,102163.59
2018-01-14T09:13:14.047Z,102162.14
2018-01-14T09:15:40.774Z,102159.22
2018-01-14T09:18:08.182Z,102160.72
2018-01-14T09:20:34.808Z,102163.77
2018-01-14T09:23:01.389Z,102163.84
2018-01-14T09:25:28.155Z,102160.56
2018-01-14T09:27:55.516Z,102159.35
2018-01-14T09:33:32.892Z,102146.23
2018-01-14T09:35:59.517Z,102148.89
2018-01-14T09:38:26.150Z,102141.89
2018-01-14T09:40:52.908Z,102144.46
2018-01-14T09:43:19.549Z,102141.95
2018-01-14T09:45:46.125Z,102147.54
2018-01-14T09:48:13.557Z,102149.11
2018-01-14T09:50:40.292Z,102154.09
2018-01-14T09:53:14.014Z,102158.13
2018-01-14T09:55:41.342Z,102155.37
2018-01-14T09:58:08.100Z,102161.67
2018-01-14T10:00:34.849Z,102157.00
2018-01-14T10:03:01.523Z,102152.24
2018-01-14T10:05:28.956Z,102154.95
2018-01-14T10:07:55.704Z,102149.62
2018-01-14T10:10:22.453Z,102151.58
2018-01-14T10:12:49.149Z,102143.63
2018-01-14T10:15:15.928Z,102141.22
2018-01-14T10:17:42.583Z,102140.22
2018-01-14T10:20:09.191Z,102138.80
2018-01-14T10:22:35.861Z,102140.48
2018-01-14T10:25:02.536Z,102135.09
2018-01-14T10:27:29.285Z,102135.34
2018-01-14T10:29:57.404Z,102132.60
2018-01-14T10:32:24.182Z,102130.17
2018-01-14T10:34:50.809Z,102132.12
2018-01-14T10:37:17.564Z,102131.77
2018-01-14T10:39:44.309Z,102128.41
2018-01-14T10:42:10.967Z,102132.47
2018-01-14T10:44:38.034Z,102128.59
2018-01-14T10:47:04.644Z,102127.31
2018-01-14T10:49:31.274Z,102123.91
2018-01-14T10:51:57.876Z,102120.08
2018-01-14T10:54:25.273Z,102117.66
2018-01-14T10:56:51.920Z,102121.53
2018-01-14T10:59:18.553Z,102121.07
2018-01-14T11:01:45.170Z,102112.00
2018-01-14T11:04:12.560Z,102115.02
2018-01-14T11:06:39.199Z,102116.98
2018-01-14T11:09:05.823Z,102114.89
2018-01-14T11:11:40.164Z,102113.76
2018-01-14T11:14:06.844Z,102114.03
2018-01-14T11:16:34.031Z,102115.09
2018-01-14T11:19:01.384Z,102110.75
2018-01-14T11:21:27.992Z,102110.19
2018-01-14T11:23:54.588Z,102097.92
2018-01-14T11:26:21.904Z,102091.77
2018-01-14T11:28:51.658Z,102087.13
2018-01-14T11:31:19.015Z,102089.77
2018-01-14T11:33:46.393Z,102090.97
2018-01-14T11:36:13.177Z,102090.70
2018-01-14T11:38:39.789Z,102088.07
2018-01-14T11:41:06.434Z,102079.19
2018-01-14T11:43:33.052Z,102079.38
2018-01-14T11:46:00.690Z,102076.61
2018-01-14T11:48:27.321Z,102075.47
2018-01-14T11:50:53.947Z,102074.36
2018-01-14T11:53:20.618Z,102070.25
2018-01-14T11:55:47.347Z,102065.70
2018-01-14T11:58:14.732Z,102060.11
2018-01-14T12:00:41.335Z,102047.56
2018-01-14T12:03:07.949Z,102050.96
2018-01-14T12:05:35.532Z,102058.73
2018-01-14T12:08:02.113Z,102056.30
2018-01-14T12:10:28.724Z,102059.00
2018-01-14T12:12:55.384Z,102061.55
2018-01-14T12:15:22.127Z,102052.09
2018-01-14T12:17:48.771Z,102042.66
2018-01-14T12:20:15.615Z,102041.62
2018-01-14T12:22:42.260Z,102042.30
2018-01-14T12:25:09.004Z,102034.87
2018-01-14T12:27:36.249Z,102038.59
2018-01-14T12:30:03.206Z,102037.13
2018-01-14T12:32:48.583Z,102032.63
2018-01-14T12:35:15.326Z,102037.37
2018-01-14T12:37:41.972Z,102035.20
2018-01-14T12:40:08.758Z,102030.22
2018-01-14T12:42:36.302Z,102031.12
2018-01-14T12:45:03.266Z,102025.67
2018-01-14T12:47:29.988Z,102027.05
2018-01-14T12:49:56.647Z,102020.70
2018-01-14T12:52:23.271Z,102017.17
2018-01-14T12:54:50.111Z,102016.25
2018-01-14T12:57:16.760Z,102020.73
2018-01-14T12:59:43.552Z,102015.29
2018-01-14T13:02:10.107Z,102017.45
2018-01-14T13:04:37.519Z,102015.89
2018-01-14T13:07:04.396Z,102011.27
2018-01-14T13:09:31.113Z,102007.02
2018-01-14T13:11:57.778Z,102001.35
2018-01-14T13:14:24.472Z,102009.05
2018-01-14T13:16:51.241Z,102003.84
2018-01-14T13:19:17.892Z,102001.48
2018-01-14T13:21:44.537Z,102004.15
2018-01-14T13:24:11.172Z,102002.30
2018-01-14T13:26:37.804Z,102007.28
2018-01-14T13:29:04.466Z,101998.16
2018-01-14T13:31:31.407Z,101999.77
2018-01-14T13:33:58.056Z,101992.05
2018-01-14T13:36:24.788Z,101995.23
2018-01-14T13:38:51.548Z,101992.03
2018-01-14T13:41:18.324Z,101986.93
2018-01-14T13:43:45.236Z,101992.47
2018-01-14T13:46:12.154Z,101991.07
2018-01-14T13:48:38.837Z,102004.62
2018-01-14T13:51:05.616Z,101996.58
2018-01-14T13:53:32.381Z,101998.81
2018-01-14T13:55:59.885Z,102004.59
2018-01-14T13:58:26.640Z,101994.95
2018-01-14T14:00:53.280Z,101996.08
2018-01-14T14:03:20.120Z,102000.41
2018-01-14T14:05:46.968Z,101997.34
2018-01-14T14:08:13.627Z,101999.14
2018-01-14T14:10:40.281Z,102000.67
2018-01-14T14:13:07.004Z,102003.11
2018-01-14T14:15:33.674Z,102000.50
2018-01-14T14:18:00.357Z,102001.06
2018-01-14T14:20:27.053Z,101999.94
2018-01-14T14:22:53.802Z,101995.58
2018-01-14T14:25:20.548Z,102004.09
2018-01-14T14:27:47.550Z,102003.55
2018-01-14T14:30:14.336Z,102002.58
2018-01-14T14:32:41.120Z,102002.78
2018-01-14T14:35:08.474Z,102003.78
2018-01-14T14:37:36.006Z,102007.58
2018-01-14T14:40:02.847Z,102003.72
2018-01-14T14:42:29.635Z,102003.64
2018-01-14T14:44:57.156Z,101998.94
2018-01-14T14:47:23.902Z,101997.27
2018-01-14T14:49:51.267Z,101999.95
2018-01-14T14:52:17.880Z,101999.87
2018-01-14T14:54:45.232Z,102001.64
2018-01-14T14:57:11.828Z,101999.56
2018-01-14T14:59:38.477Z,101996.48
2018-01-14T15:02:05.202Z,101994.35
2018-01-14T15:04:31.865Z,101989.71
2018-01-14T15:06:58.545Z,101991.81
2018-01-14T15:09:25.279Z,101996.94
2018-01-14T15:11:51.973Z,101988.69
2018-01-14T15:14:18.637Z,101994.80
2018-01-14T15:16:45.268Z,101993.11
2018-01-14T15:19:11.857Z,102003.53
2018-01-14T15:21:39.213Z,101992.77
2018-01-14T15:24:06.544Z,101993.25
2018-01-14T15:26:33.135Z,101993.67
2018-01-14T15:28:59.757Z,101996.78
2018-01-14T15:31:27.195Z,101995.42
2018-01-14T15:33:53.769Z,101993.59
2018-01-14T15:36:20.501Z,101978.84
2018-01-14T15:38:47.941Z,101983.11
2018-01-14T15:41:14.781Z,101982.95
2018-01-14T15:43:41.490Z,101981.88
2018-01-14T15:46:08.156Z,101984.20
2018-01-14T15:48:34.943Z,101976.56
2018-01-14T15:51:02.376Z,101978.94
2018-01-14T15:53:29.021Z,101978.02
2018-01-14T15:55:55.769Z,101982.12
2018-01-14T15:58:22.604Z,101987.09
2018-01-14T16:00:49.237Z,101983.55
2018-01-14T16:03:15.991Z,101987.45
2018-01-14T16:05:42.608Z,101994.48
2018-01-14T16:08:09.289Z,101988.83
2018-01-14T16:10:35.944Z,101981.39
2018-01-14T16:13:02.584Z,101979.13
2018-01-14T16:15:29.197Z,101980.64
2018-01-14T16:17:55.801Z,101976.38
2018-01-14T16:20:23.125Z,101973.45
2018-01-14T16:22:50.233Z,101972.78
2018-01-14T16:25:16.935Z,101975.52
2018-01-14T16:27:43.538Z,101976.40
2018-01-14T16:30:10.300Z,101974.41
2018-01-14T16:32:36.985Z,101971.95
2018-01-14T16:35:04.400Z,101972.39
2018-01-14T16:37:31.153Z,101975.97
2018-01-14T16:39:58.031Z,101972.10
2018-01-14T16:42:25.470Z,101973.23
2018-01-14T16:44:52.428Z,101968.39
2018-01-14T16:47:19.152Z,101971.90
2018-01-14T16:49:45.856Z,101975.16
2018-01-14T16:52:13.357Z,101977.25
2018-01-14T16:54:40.211Z,101979.46
2018-01-14T16:57:06.987Z,101972.77
2018-01-14T16:59:33.697Z,101976.56
2018-01-14T17:02:00.339Z,101975.98
2018-01-14T17:04:27.109Z,101976.95
2018-01-14T17:06:53.894Z,101974.84
2018-01-14T17:09:20.579Z,101981.27
2018-01-14T17:11:47.337Z,101977.52
2018-01-14T17:14:13.968Z,101979.27
2018-01-14T17:16:40.553Z,101976.49
2018-01-14T17:19:07.893Z,101976.89
2018-01-14T17:21:34.493Z,101970.09
2018-01-14T17:24:01.088Z,101964.53
2018-01-14T17:26:27.749Z,101963.74
2018-01-14T17:28:55.075Z,101956.44
2018-01-14T17:31:21.709Z,101963.56
2018-01-14T17:33:48.326Z,101958.83
2018-01-14T17:36:14.954Z,101946.02
2018-01-14T17:38:41.548Z,101948.03
2018-01-14T17:41:08.192Z,101943.50
2018-01-14T17:43:34.863Z,101941.03
2018-01-14T17:46:02.302Z,101948.78
2018-01-14T17:48:28.985Z,101942.02
2018-01-14T17:50:55.869Z,101936.19
2018-01-14T17:53:22.496Z,101942.31
2018-01-14T17:55:49.183Z,101929.36
2018-01-14T17:58:15.815Z,101931.66
2018-01-14T18:00:42.441Z,101930.38
2018-01-14T18:03:09.082Z,101918.96
2018-01-14T18:05:35.694Z,101920.44
2018-01-14T18:08:02.306Z,101923.19
2018-01-14T18:10:29.661Z,101921.92
2018-01-14T18:12:57.005Z,101927.13
2018-01-14T18:15:23.622Z,101924.31
2018-01-14T18:17:50.257Z,101916.78
2018-01-14T18:20:16.912Z,101919.65
2018-01-14T18:22:44.286Z,101911.55
2018-01-14T18:25:10.884Z,101909.45
2018-01-14T18:27:37.555Z,101903.01
2018-01-14T18:30:04.285Z,101903.28
2018-01-14T18:32:30.946Z,101901.48
2018-01-14T18:34:57.666Z,101896.97
2018-01-14T18:37:24.337Z,101894.95
2018-01-14T18:39:51.023Z,101891.23
2018-01-14T18:42:17.646Z,101885.90
2018-01-14T18:44:44.618Z,101886.94
2018-01-14T18:47:12.144Z,101885.62
2018-01-14T18:49:38.780Z,101881.23
2018-01-14T18:52:05.412Z,101881.22
2018-01-14T18:54:32.048Z,101880.80
2018-01-14T18:56:58.688Z,101882.88
2018-01-14T18:59:25.349Z,101877.22
2018-01-14T19:01:52.802Z,101883.73
2018-01-14T19:04:19.439Z,101883.66
2018-01-14T19:06:46.101Z,101886.79
2018-01-14T19:09:12.734Z,101881.48
2018-01-14T19:11:39.392Z,101885.17
2018-01-14T19:14:06.000Z,101882.15
2018-01-14T19:16:32.631Z,101874.52
2018-01-14T19:19:00.025Z,101873.11
2018-01-14T19:21:26.663Z,101871.98
2018-01-14T19:23:53.272Z,101868.59
2018-01-14T19:26:20.600Z,101877.63
2018-01-14T19:28:47.264Z,101879.50
2018-01-14T19:31:13.870Z,101880.33
2018-01-14T19:33:40.544Z,101884.84
2018-01-14T19:36:07.231Z,101881.31
2018-01-14T19:38:33.881Z,101878.94
2018-01-14T19:41:00.528Z,101878.63
2018-01-14T19:43:27.221Z,101883.34
2018-01-14T19:45:53.895Z,101880.05
2018-01-14T19:48:21.302Z,101882.69
2018-01-14T19:50:47.925Z,101880.56
2018-01-14T19:53:14.683Z,101882.80
2018-01-14T19:55:41.405Z,101874.63
2018-01-14T19:58:08.046Z,101874.71
2018-01-14T20:00:34.756Z,101879.64
2018-01-14T20:03:28.267Z,101868.97
2018-01-14T20:05:54.969Z,101868.83
2018-01-14T20:08:21.762Z,101868.98
2018-01-14T20:10:48.420Z,101876.09
2018-01-14T20:13:15.214Z,101867.05
2018-01-14T20:15:41.997Z,101863.80
2018-01-14T20:18:09.516Z,101861.68
2018-01-14T20:20:36.238Z,101865.69
2018-01-14T20:23:02.881Z,101856.67
2018-01-14T20:25:29.723Z,101859.38
2018-01-14T20:27:56.588Z,101856.96
2018-01-14T20:30:24.038Z,101856.96
2018-01-14T20:32:50.656Z,101864.61
2018-01-14T20:35:17.345Z,101859.34
2018-01-14T20:37:44.238Z,101867.64
2018-01-14T20:40:11.002Z,101868.56
2018-01-14T20:42:37.645Z,101869.22
2018-01-14T20:45:04.328Z,101868.35
2018-01-14T20:47:30.998Z,101874.13
2018-01-14T20:49:57.675Z,101871.45
2018-01-14T20:52:24.345Z,101868.56
2018-01-14T20:54:51.172Z,101860.32
2018-01-14T20:57:18.027Z,101862.47
2018-01-14T20:59:44.584Z,101853.27
2018-01-14T21:02:11.552Z,101867.19
2018-01-14T21:04:38.282Z,101863.23
2018-01-14T21:07:04.964Z,101860.20
2018-01-14T21:09:32.457Z,101861.94
2018-01-14T21:11:59.123Z,101861.69
2018-01-14T21:14:25.802Z,101855.98
2018-01-14T21:16:53.278Z,101854.19
2018-01-14T21:19:20.700Z,101854.22
2018-01-14T21:21:47.321Z,101857.91
2018-01-14T21:24:14.041Z,101845.50
2018-01-14T21:26:41.499Z,101843.58
2018-01-14T21:29:08.147Z,101849.06
2018-01-14T21:31:34.777Z,101843.70
2018-01-14T21:34:02.140Z,101848.00
2018-01-14T21:36:29.540Z,101842.72
2018-01-14T21:38:56.177Z,101839.59
2018-01-14T21:41:22.803Z,101846.64
2018-01-14T21:43:49.407Z,101846.28
2018-01-14T21:46:16.038Z,101845.16
2018-01-14T21:48:42.736Z,101849.16
2018-01-14T21:51:09.337Z,101851.19
2018-01-14T21:53:35.962Z,101846.61
2018-01-14T21:56:02.580Z,101846.45
2018-01-14T21:58:29.262Z,101849.07
2018-01-14T22:00:55.959Z,101847.06
2018-01-14T22:03:22.589Z,101845.33
2018-01-14T22:05:49.208Z,101845.84
2018-01-14T22:08:16.560Z,101837.45
2018-01-14T22:10:43.250Z,101841.21
2018-01-14T22:13:09.854Z,101840.02
2018-01-14T22:15:37.272Z,101838.32
2018-01-14T22:18:03.918Z,101830.44
2018-01-14T22:20:30.569Z,101823.21
2018-01-14T22:22:57.293Z,101819.05
2018-01-14T22:25:23.932Z,101816.99
2018-01-14T22:27:50.525Z,101818.83
2018-01-14T22:30:18.018Z,101810.59
2018-01-14T22:32:44.657Z,101806.28
2018-01-14T22:35:12.056Z,101796.84
2018-01-14T22:37:39.469Z,101799.50
2018-01-14T22:40:06.891Z,101793.03
2018-01-14T22:42:33.574Z,101796.53
2018-01-14T22:45:00.915Z,101794.91
2018-01-14T22:47:27.510Z,101796.23
2018-01-14T22:49:54.121Z,101795.30
2018-01-14T22:52:21.750Z,101793.04
2018-01-14T22:54:48.399Z,101786.44
2018-01-14T22:57:15.284Z,101779.61
2018-01-14T22:59:42.728Z,101778.02
2018-01-14T23:02:09.417Z,101777.83
2018-01-14T23:04:36.186Z,101778.42
2018-01-14T23:07:02.846Z,101778.28
2018-01-14T23:09:29.464Z,101772.24
2018-01-14T23:11:56.111Z,101771.91
2018-01-14T23:14:22.718Z,101773.64
2018-01-14T23:16:52.294Z,101770.69
2018-01-14T23:19:18.998Z,101774.41
2018-01-14T23:21:45.639Z,101764.25
2018-01-14T23:24:12.327Z,101756.17
2018-01-14T23:26:38.944Z,101760.09
2018-01-14T23:29:05.562Z,101752.55
2018-01-14T23:31:32.232Z,101746.38
2018-01-14T23:33:59.075Z,101749.03
2018-01-14T23:36:25.767Z,101750.98
2018-01-14T23:38:53.115Z,101746.66
2018-01-14T23:41:19.741Z,101745.93
2018-01-14T23:43:46.319Z,101744.89
2018-01-14T23:46:13.745Z,101739.17
2018-01-14T23:48:40.348Z,101733.70
2018-01-14T23:51:07.088Z,101732.76
2018-01-14T23:53:33.723Z,101721.20
2018-01-14T23:56:00.332Z,101726.44
2018-01-14T23:58:26.931Z,101724.58
